Time;durP1;ratioP1;P1;durP2;ratioP2;P2;SDS_P1;SDS_P2;PMS_P1;PMS_P2;Temp;Humidity;BMP_temperature;BMP_pressure;BME280_temperature;BME280_humidity;BME280_pressure;Samples;Min_cycle;Max_cycle;Signal;HPM_P1;HPM_P2
2022/07/06 00:00:17;;;;;;;0.13;0.13;;;14.50;99.90;;;;;;5043086;28;20071;-83
2022/07/06 00:02:44;;;;;;;0.30;0.30;;;14.50;99.90;;;;;;5075529;28;20070;-82
2022/07/06 00:05:10;;;;;;;0.10;0.10;;;14.50;99.90;;;;;;5059119;28;20040;-84
2022/07/06 00:07:37;;;;;;;0.28;0.15;;;14.50;99.90;;;;;;5042279;28;20039;-83
2022/07/06 00:10:04;;;;;;;0.10;0.10;;;14.50;99.90;;;;;;5042621;28;20040;-84
2022/07/06 00:12:31;;;;;;;0.10;0.10;;;14.50;99.90;;;;;;5075328;28;20037;-82
2022/07/06 00:14:58;;;;;;;0.10;0.10;;;14.50;99.90;;;;;;5075939;28;20040;-84
2022/07/06 00:17:24;;;;;;;0.03;0.03;;;14.50;99.90;;;;;;5075891;28;20029;-83
2022/07/06 00:19:51;;;;;;;0.10;0.10;;;14.50;99.90;;;;;;5042331;28;21837;-83
2022/07/06 00:22:18;;;;;;;0.32;0.25;;;14.40;99.90;;;;;;5075648;28;20124;-84
2022/07/06 00:24:44;;;;;;;0.03;0.03;;;14.40;99.90;;;;;;5075036;28;20037;-84
2022/07/06 00:27:11;;;;;;;0.10;0.10;;;14.40;99.90;;;;;;5058938;28;20051;-84
2022/07/06 00:29:43;;;;;;;0.03;0.03;;;14.40;99.90;;;;;;5042075;28;20493;-83
2022/07/06 00:32:11;;;;;;;0.10;0.10;;;14.40;99.90;;;;;;5043903;28;20182;-84
2022/07/06 00:34:39;;;;;;;0.08;0.08;;;14.30;99.90;;;;;;5058587;28;20037;-84
2022/07/06 00:37:06;;;;;;;0.00;0.00;;;14.30;99.90;;;;;;5058655;28;20473;-84
2022/07/06 00:39:33;;;;;;;0.08;0.08;;;14.30;99.90;;;;;;5074924;28;20115;-83
2022/07/06 00:42:00;;;;;;;0.13;0.00;;;14.30;99.90;;;;;;5058790;28;20691;-84
2022/07/06 00:44:28;;;;;;;0.00;0.00;;;14.20;99.90;;;;;;5058465;28;20047;-84
2022/07/06 00:46:55;;;;;;;0.15;0.15;;;14.20;99.90;;;;;;5075127;28;20047;-83
2022/07/06 00:52:07;;;;;;;0.00;0.00;;;14.20;99.90;;;;;;5063746;28;20463;-83
2022/07/06 00:54:35;;;;;;;0.03;0.03;;;14.20;99.90;;;;;;5041909;28;20066;-83
2022/07/06 00:57:03;;;;;;;0.20;0.10;;;14.20;99.90;;;;;;5058822;28;20032;-83
2022/07/06 00:59:30;;;;;;;0.10;0.10;;;14.20;99.90;;;;;;5074268;28;20131;-83
2022/07/06 01:01:57;;;;;;;0.00;0.00;;;14.20;99.90;;;;;;5074758;28;20036;-82
2022/07/06 01:04:24;;;;;;;0.10;0.10;;;14.20;99.90;;;;;;5058429;28;20040;-83
2022/07/06 01:06:51;;;;;;;0.15;0.10;;;14.20;99.90;;;;;;5057859;28;20079;-82
2022/07/06 01:09:17;;;;;;;0.00;0.00;;;14.20;99.90;;;;;;5057847;28;20050;-84
2022/07/06 01:11:44;;;;;;;0.10;0.00;;;14.30;99.90;;;;;;5057457;28;20098;-83
2022/07/06 01:14:13;;;;;;;0.00;0.00;;;14.30;99.90;;;;;;5074313;28;20072;-83
2022/07/06 01:16:40;;;;;;;0.10;0.10;;;14.30;99.90;;;;;;5074520;28;20083;-84
2022/07/06 01:19:07;;;;;;;0.10;0.10;;;14.30;99.90;;;;;;5074593;28;20461;-82
2022/07/06 01:21:33;;;;;;;0.10;0.10;;;14.30;99.90;;;;;;5057893;28;20036;-83
2022/07/06 01:24:00;;;;;;;0.10;0.10;;;14.30;99.90;;;;;;5057658;28;20040;-84
2022/07/06 01:26:27;;;;;;;0.00;0.00;;;14.30;99.90;;;;;;5040980;28;20043;-83
2022/07/06 01:28:54;;;;;;;0.10;0.10;;;14.30;99.90;;;;;;5040773;28;20094;-84
2022/07/06 01:31:23;;;;;;;0.10;0.10;;;14.30;99.90;;;;;;5057348;28;20048;-82
2022/07/06 01:33:52;;;;;;;0.20;0.10;;;14.20;99.90;;;;;;5073622;28;20059;-84
2022/07/06 01:36:19;;;;;;;0.08;0.08;;;14.20;99.90;;;;;;5073832;28;20409;-83
2022/07/06 01:38:51;;;;;;;0.10;0.10;;;14.20;99.90;;;;;;5073688;28;20043;-82
2022/07/06 01:41:19;;;;;;;0.10;0.10;;;14.20;99.90;;;;;;5074211;28;20044;-84
2022/07/06 01:43:46;;;;;;;0.00;0.00;;;14.10;99.90;;;;;;5090399;28;20036;-83
2022/07/06 01:46:13;;;;;;;0.10;0.10;;;14.10;99.90;;;;;;5040748;28;20053;-82
2022/07/06 01:48:40;;;;;;;0.30;0.17;;;14.10;99.90;;;;;;5073512;28;20103;-84
2022/07/06 01:51:07;;;;;;;0.00;0.00;;;14.10;99.90;;;;;;5073462;28;20037;-83
2022/07/06 01:53:34;;;;;;;0.00;0.00;;;14.10;99.90;;;;;;5090408;28;20481;-82
2022/07/06 01:56:01;;;;;;;0.13;0.10;;;14.10;99.90;;;;;;5040665;28;20040;-82
2022/07/06 01:58:27;;;;;;;0.00;0.00;;;14.10;99.90;;;;;;5040783;28;20044;-84
2022/07/06 02:00:55;;;;;;;1.20;0.32;;;14.10;99.90;;;;;;5056924;28;20044;-82
2022/07/06 02:03:22;;;;;;;0.00;0.00;;;14.00;99.90;;;;;;5057267;28;20044;-83
2022/07/06 02:05:49;;;;;;;0.10;0.10;;;14.10;99.90;;;;;;5056711;28;20037;-84
2022/07/06 02:08:16;;;;;;;0.10;0.10;;;14.10;99.90;;;;;;5057144;28;20040;-82
2022/07/06 02:10:42;;;;;;;0.00;0.00;;;14.20;99.90;;;;;;5055881;28;20048;-83
2022/07/06 02:13:09;;;;;;;0.10;0.10;;;14.00;99.90;;;;;;5073259;28;20072;-84
2022/07/06 02:15:36;;;;;;;0.20;0.20;;;14.10;99.90;;;;;;5073182;28;20045;-84
2022/07/06 02:18:03;;;;;;;0.00;0.00;;;14.10;99.90;;;;;;5072729;28;20043;-82
2022/07/06 02:20:30;;;;;;;0.10;0.10;;;14.10;99.90;;;;;;5056873;28;20044;-84
2022/07/06 02:22:56;;;;;;;0.00;0.00;;;14.10;99.90;;;;;;5040221;28;20136;-83
2022/07/06 02:25:23;;;;;;;0.00;0.00;;;14.20;99.90;;;;;;5040548;28;20086;-84
2022/07/06 02:27:50;;;;;;;0.10;0.10;;;14.20;99.90;;;;;;5039888;28;20040;-83
2022/07/06 02:30:16;;;;;;;0.00;0.00;;;14.10;99.90;;;;;;5040141;28;20063;-83
2022/07/06 02:32:43;;;;;;;0.00;0.00;;;14.10;99.90;;;;;;5056349;28;20047;-82
2022/07/06 02:35:10;;;;;;;0.08;0.08;;;14.20;99.90;;;;;;5071789;28;20055;-82
2022/07/06 02:37:37;;;;;;;0.10;0.10;;;14.10;99.90;;;;;;5056247;28;20036;-83
2022/07/06 02:40:05;;;;;;;0.22;0.17;;;14.10;99.90;;;;;;5073030;28;20131;-83
2022/07/06 02:42:31;;;;;;;0.10;0.10;;;14.10;99.90;;;;;;5073062;28;20036;-84
2022/07/06 02:44:58;;;;;;;0.10;0.10;;;14.10;99.90;;;;;;5039930;28;20511;-84
2022/07/06 02:47:26;;;;;;;0.10;0.10;;;14.10;99.90;;;;;;5072892;28;20507;-83
2022/07/06 02:49:53;;;;;;;0.03;0.03;;;14.10;99.90;;;;;;5089344;28;20046;-84
2022/07/06 02:52:20;;;;;;;0.10;0.10;;;14.10;99.90;;;;;;5040408;28;20032;-84
2022/07/06 02:54:48;;;;;;;0.20;0.20;;;14.10;99.90;;;;;;5073015;28;20029;-83
2022/07/06 02:57:16;;;;;;;0.03;0.03;;;14.10;99.90;;;;;;5040489;28;20082;-82
2022/07/06 02:59:43;;;;;;;0.10;0.10;;;14.10;99.90;;;;;;5055642;28;20493;-83
2022/07/06 03:02:09;;;;;;;0.00;0.00;;;14.10;99.90;;;;;;5039259;28;20097;-84
2022/07/06 03:04:36;;;;;;;0.10;0.10;;;14.10;99.90;;;;;;5072296;28;20123;-83
2022/07/06 03:07:03;;;;;;;0.08;0.08;;;14.10;99.90;;;;;;5039487;28;20040;-83
2022/07/06 03:09:30;;;;;;;0.00;0.00;;;14.10;99.90;;;;;;5072526;28;20470;-83
2022/07/06 03:11:56;;;;;;;0.10;0.10;;;14.10;99.90;;;;;;5039684;28;20525;-83
2022/07/06 03:14:25;;;;;;;0.35;0.20;;;14.00;99.90;;;;;;5055757;28;20067;-83
2022/07/06 03:16:51;;;;;;;0.05;0.05;;;14.00;99.90;;;;;;5072051;28;20051;-84
2022/07/06 03:19:18;;;;;;;0.32;0.20;;;14.00;99.90;;;;;;5072485;28;20033;-83
2022/07/06 03:21:46;;;;;;;0.28;0.10;;;13.90;99.90;;;;;;5041443;28;20032;-83
2022/07/06 03:24:12;;;;;;;0.10;0.10;;;13.90;99.90;;;;;;5059587;28;20748;-83
2022/07/06 03:26:39;;;;;;;0.38;0.20;;;13.80;99.90;;;;;;5076156;28;20040;-84
2022/07/06 03:29:06;;;;;;;0.00;0.00;;;13.80;99.90;;;;;;5059428;28;20036;-85
2022/07/06 03:31:32;;;;;;;0.10;0.10;;;13.70;99.90;;;;;;5037227;28;20053;-83
2022/07/06 03:33:59;;;;;;;0.15;0.10;;;13.70;99.90;;;;;;5039378;28;20067;-83
2022/07/06 03:36:26;;;;;;;0.00;0.00;;;13.60;99.90;;;;;;5039813;28;20040;-83
2022/07/06 03:38:53;;;;;;;0.00;0.00;;;13.60;99.90;;;;;;5040026;28;20048;-83
2022/07/06 03:41:19;;;;;;;0.03;0.03;;;13.60;99.90;;;;;;5040214;28;20513;-84
2022/07/06 03:43:46;;;;;;;0.00;0.00;;;13.50;99.90;;;;;;5040076;28;20045;-83
2022/07/06 03:46:13;;;;;;;0.10;0.10;;;13.50;99.90;;;;;;5055839;28;20140;-82
2022/07/06 03:48:39;;;;;;;1.90;0.13;;;13.50;99.90;;;;;;5055777;28;20037;-84
2022/07/06 03:51:06;;;;;;;0.10;0.10;;;13.40;99.90;;;;;;5055783;28;20076;-83
2022/07/06 03:53:33;;;;;;;0.20;0.10;;;13.30;99.90;;;;;;5055885;28;20460;-84
2022/07/06 03:58:45;;;;;;;0.13;0.10;;;13.20;99.90;;;;;;5060829;28;20049;-84
2022/07/06 04:01:11;;;;;;;0.05;0.05;;;13.20;99.90;;;;;;5071683;28;20124;-84
2022/07/06 04:03:38;;;;;;;0.10;0.10;;;13.20;99.90;;;;;;5055463;28;20040;-83
2022/07/06 04:06:05;;;;;;;0.00;0.00;;;13.20;99.90;;;;;;5058058;28;20045;-83
2022/07/06 04:08:32;;;;;;;0.10;0.10;;;13.10;99.90;;;;;;5097573;28;20076;-83
2022/07/06 04:10:59;;;;;;;0.10;0.10;;;13.10;99.90;;;;;;5085838;28;20467;-84
2022/07/06 04:13:26;;;;;;;0.10;0.10;;;13.10;99.90;;;;;;5067095;28;20028;-83
2022/07/06 04:15:52;;;;;;;0.10;0.10;;;13.00;99.90;;;;;;5088798;28;20032;-83
2022/07/06 04:18:19;;;;;;;0.10;0.10;;;13.00;99.90;;;;;;5059093;28;20091;-83
2022/07/06 04:20:46;;;;;;;0.10;0.10;;;13.00;99.90;;;;;;5068953;28;20036;-84
2022/07/06 04:23:13;;;;;;;0.05;0.05;;;13.10;99.90;;;;;;5072760;28;20466;-83
2022/07/06 04:25:40;;;;;;;0.05;0.05;;;13.10;99.90;;;;;;5080650;28;20102;-84
2022/07/06 04:28:06;;;;;;;0.10;0.10;;;13.00;99.90;;;;;;5063520;28;20101;-84
2022/07/06 04:30:33;;;;;;;0.03;0.03;;;13.00;99.90;;;;;;5055607;28;20052;-84
2022/07/06 04:33:00;;;;;;;0.00;0.00;;;13.00;99.90;;;;;;5074690;28;20612;-83
2022/07/06 04:35:27;;;;;;;0.28;0.20;;;13.10;99.90;;;;;;5061677;28;20036;-84
2022/07/06 04:37:54;;;;;;;0.00;0.00;;;13.10;99.90;;;;;;5094772;28;20072;-83
2022/07/06 04:40:20;;;;;;;0.00;0.00;;;13.10;99.90;;;;;;5056990;28;20041;-83
2022/07/06 04:42:48;;;;;;;0.15;0.15;;;13.20;99.90;;;;;;5089585;28;20121;-84
2022/07/06 04:45:15;;;;;;;0.08;0.08;;;13.20;99.90;;;;;;5077926;28;20040;-83
2022/07/06 04:47:43;;;;;;;0.10;0.10;;;13.20;99.90;;;;;;5088849;28;20040;-83
2022/07/06 04:50:11;;;;;;;0.00;0.00;;;13.30;99.90;;;;;;5091010;28;20044;-82
2022/07/06 04:52:38;;;;;;;0.10;0.10;;;13.30;99.90;;;;;;5108259;28;20040;-82
2022/07/06 04:55:05;;;;;;;0.10;0.10;;;13.30;99.90;;;;;;5107386;28;20049;-84
2022/07/06 04:57:32;;;;;;;0.10;0.10;;;13.30;99.90;;;;;;5074598;28;20105;-83
2022/07/06 04:59:59;;;;;;;0.10;0.10;;;13.20;99.90;;;;;;5091115;28;20048;-84
2022/07/06 05:02:26;;;;;;;0.10;0.10;;;13.30;99.90;;;;;;5090736;28;20044;-84
2022/07/06 05:04:52;;;;;;;0.10;0.10;;;13.30;99.90;;;;;;5091431;28;20036;-84
2022/07/06 05:07:19;;;;;;;0.10;0.10;;;13.40;99.90;;;;;;5074135;28;20056;-83
2022/07/06 05:09:46;;;;;;;0.00;0.00;;;13.50;99.90;;;;;;5090942;28;20661;-84
2022/07/06 05:12:12;;;;;;;0.08;0.08;;;13.60;99.90;;;;;;5057480;28;20070;-84
2022/07/06 05:14:39;;;;;;;0.10;0.10;;;13.60;99.90;;;;;;5090673;28;20036;-84
2022/07/06 05:17:06;;;;;;;0.10;0.10;;;13.70;99.90;;;;;;5090247;28;20044;-84
2022/07/06 05:19:32;;;;;;;0.10;0.10;;;13.70;99.90;;;;;;5057265;28;20127;-83
2022/07/06 05:21:59;;;;;;;0.00;0.00;;;13.80;99.90;;;;;;5073890;28;20124;-84
2022/07/06 05:24:26;;;;;;;0.10;0.10;;;13.80;99.90;;;;;;5090055;28;20444;-84
2022/07/06 05:26:52;;;;;;;0.10;0.10;;;13.90;99.90;;;;;;5057397;28;20036;-84
2022/07/06 05:29:19;;;;;;;0.10;0.10;;;13.90;99.90;;;;;;5090054;28;20481;-84
2022/07/06 05:31:46;;;;;;;0.05;0.05;;;14.00;99.90;;;;;;5086854;28;20126;-83
2022/07/06 05:34:13;;;;;;;0.13;0.13;;;14.00;99.90;;;;;;5087102;28;20394;-84
2022/07/06 05:36:39;;;;;;;0.10;0.10;;;14.10;99.90;;;;;;5069960;28;20095;-83
2022/07/06 05:39:06;;;;;;;0.08;0.00;;;14.00;99.90;;;;;;5086854;28;20037;-83
2022/07/06 05:41:33;;;;;;;0.08;0.08;;;14.00;99.90;;;;;;5086356;28;20124;-84
2022/07/06 05:43:59;;;;;;;0.10;0.10;;;14.10;99.90;;;;;;5087523;28;20045;-84
2022/07/06 05:46:26;;;;;;;0.00;0.00;;;14.10;99.90;;;;;;5069716;28;20052;-84
2022/07/06 05:51:38;;;;;;;0.10;0.10;;;14.20;99.90;;;;;;5072582;28;20053;-84
2022/07/06 05:54:04;;;;;;;0.03;0.03;;;14.20;99.90;;;;;;5090029;28;20115;-83
2022/07/06 05:56:31;;;;;;;0.00;0.00;;;14.20;99.90;;;;;;5106281;28;20131;-84
2022/07/06 05:58:57;;;;;;;0.03;0.03;;;14.30;99.90;;;;;;5085991;28;20044;-83
2022/07/06 06:01:24;;;;;;;0.00;0.00;;;14.30;99.90;;;;;;5103049;28;20052;-83
2022/07/06 06:03:51;;;;;;;0.15;0.15;;;14.50;99.90;;;;;;5086460;28;20448;-85
2022/07/06 06:06:18;;;;;;;0.05;0.05;;;14.50;99.90;;;;;;5079184;28;20033;-83
2022/07/06 06:08:44;;;;;;;0.00;0.00;;;14.60;99.90;;;;;;5037278;28;20037;-85
2022/07/06 06:11:11;;;;;;;0.05;0.05;;;14.70;99.90;;;;;;5052742;28;20044;-84
2022/07/06 06:13:38;;;;;;;0.00;0.00;;;14.80;99.90;;;;;;5052721;28;20040;-84
2022/07/06 06:16:05;;;;;;;0.03;0.03;;;14.90;99.90;;;;;;5037017;28;20033;-84
2022/07/06 06:18:31;;;;;;;0.00;0.00;;;14.90;99.90;;;;;;5052404;28;20516;-84
2022/07/06 06:20:58;;;;;;;0.10;0.10;;;15.00;99.90;;;;;;5050027;28;20076;-82
2022/07/06 06:23:25;;;;;;;0.10;0.10;;;15.10;99.90;;;;;;5039284;28;20402;-84
2022/07/06 06:25:51;;;;;;;0.20;0.10;;;15.20;99.90;;;;;;5039343;28;20040;-84
2022/07/06 06:28:18;;;;;;;0.00;0.00;;;15.40;99.90;;;;;;5054038;28;20102;-84
2022/07/06 06:30:45;;;;;;;0.10;0.10;;;15.30;99.90;;;;;;5104654;28;20049;-84
2022/07/06 06:33:14;;;;;;;0.00;0.00;;;15.40;99.90;;;;;;5065376;28;20037;-82
2022/07/06 06:35:45;;;;;;;0.03;0.03;;;15.40;99.90;;;;;;5072516;28;20072;-82
2022/07/06 06:38:13;;;;;;;0.00;0.00;;;15.40;99.90;;;;;;5084152;28;20029;-83
2022/07/06 06:40:40;;;;;;;0.20;0.20;;;15.50;99.90;;;;;;5069534;28;20048;-84
2022/07/06 06:43:08;;;;;;;0.00;0.00;;;15.40;99.90;;;;;;5032812;28;20494;-85
2022/07/06 06:45:34;;;;;;;1.20;0.22;;;15.50;99.90;;;;;;5037460;28;20532;-84
2022/07/06 06:48:01;;;;;;;0.00;0.00;;;15.50;99.90;;;;;;5052453;28;20136;-83
2022/07/06 06:50:28;;;;;;;0.00;0.00;;;15.70;99.90;;;;;;5035935;28;20128;-83
2022/07/06 06:52:55;;;;;;;0.10;0.10;;;15.60;99.90;;;;;;5045632;28;20037;-83
2022/07/06 06:55:22;;;;;;;0.00;0.00;;;15.60;99.90;;;;;;5052760;28;20040;-83
2022/07/06 06:57:48;;;;;;;0.32;0.28;;;15.50;99.90;;;;;;5091926;28;20112;-83
2022/07/06 07:00:15;;;;;;;0.00;0.00;;;15.40;99.90;;;;;;5056296;28;20041;-85
2022/07/06 07:02:43;;;;;;;0.00;0.00;;;15.30;99.90;;;;;;5075797;28;20074;-84
2022/07/06 07:05:09;;;;;;;0.00;0.00;;;15.30;99.90;;;;;;5051290;28;20045;-86
2022/07/06 07:07:36;;;;;;;0.08;0.08;;;15.30;99.90;;;;;;5091687;28;20041;-84
2022/07/06 07:10:04;;;;;;;0.00;0.00;;;15.20;99.90;;;;;;5075373;28;20073;-83
2022/07/06 07:12:32;;;;;;;0.00;0.00;;;15.10;99.90;;;;;;5089175;28;20105;-83
2022/07/06 07:15:00;;;;;;;0.10;0.10;;;15.10;99.90;;;;;;5084168;28;20047;-83
2022/07/06 07:17:26;;;;;;;0.28;0.20;;;15.10;99.90;;;;;;5065688;28;20036;-82
2022/07/06 07:19:53;;;;;;;0.10;0.10;;;15.10;99.90;;;;;;5085422;28;20051;-83
2022/07/06 07:22:20;;;;;;;0.10;0.10;;;15.00;99.90;;;;;;5126035;28;20549;-83
2022/07/06 07:24:47;;;;;;;0.00;0.00;;;15.00;99.90;;;;;;5100248;28;20684;-82
2022/07/06 07:27:14;;;;;;;0.00;0.00;;;15.00;99.90;;;;;;5076419;28;20422;-83
2022/07/06 07:29:40;;;;;;;0.10;0.10;;;15.10;99.90;;;;;;5058051;28;20040;-84
2022/07/06 07:32:07;;;;;;;0.00;0.00;;;15.20;99.90;;;;;;5042458;28;20190;-84
2022/07/06 07:34:34;;;;;;;0.00;0.00;;;15.30;99.90;;;;;;5058485;28;20048;-84
2022/07/06 07:37:00;;;;;;;0.00;0.00;;;15.30;99.90;;;;;;5042925;28;20056;-84
2022/07/06 07:39:28;;;;;;;0.00;0.00;;;15.30;99.90;;;;;;5042859;28;20045;-84
2022/07/06 07:41:55;;;;;;;0.03;0.03;;;15.40;99.90;;;;;;5059056;28;20091;-84
2022/07/06 07:44:22;;;;;;;0.00;0.00;;;15.40;99.90;;;;;;5059335;28;20490;-85
2022/07/06 07:46:48;;;;;;;0.00;0.00;;;15.40;99.90;;;;;;5042677;28;20465;-84
2022/07/06 07:49:15;;;;;;;0.00;0.00;;;15.40;99.90;;;;;;5059232;28;20383;-85
2022/07/06 07:51:42;;;;;;;0.00;0.00;;;15.40;99.90;;;;;;5042506;28;20073;-85
2022/07/06 07:54:08;;;;;;;0.00;0.00;;;15.60;99.90;;;;;;5042831;28;20498;-85
2022/07/06 07:56:35;;;;;;;0.00;0.00;;;15.70;99.90;;;;;;5042780;28;20040;-84
2022/07/06 07:59:02;;;;;;;0.00;0.00;;;16.00;99.90;;;;;;5075523;28;20037;-84
2022/07/06 08:01:28;;;;;;;0.00;0.00;;;16.10;99.90;;;;;;5042251;28;20080;-83
2022/07/06 08:03:55;;;;;;;0.00;0.00;;;16.30;99.90;;;;;;5042443;28;20047;-83
2022/07/06 08:06:22;;;;;;;0.00;0.00;;;16.40;99.90;;;;;;5058780;28;20045;-85
2022/07/06 08:08:48;;;;;;;0.00;0.00;;;16.60;99.90;;;;;;5054924;28;20040;-84
2022/07/06 08:11:15;;;;;;;0.13;0.13;;;16.80;99.90;;;;;;5055628;28;20041;-85
2022/07/06 08:13:42;;;;;;;0.17;0.10;;;17.00;99.90;;;;;;5055514;28;20075;-85
2022/07/06 08:16:09;;;;;;;0.03;0.03;;;17.20;99.90;;;;;;5039540;28;20041;-85
2022/07/06 08:18:36;;;;;;;1.05;0.32;;;17.40;99.90;;;;;;5055566;28;20033;-85
2022/07/06 08:21:04;;;;;;;0.03;0.03;;;17.40;99.90;;;;;;5055982;28;20126;-83
2022/07/06 08:23:31;;;;;;;0.10;0.10;;;17.50;99.90;;;;;;5055788;28;20040;-84
2022/07/06 08:25:57;;;;;;;0.55;0.10;;;17.60;99.90;;;;;;5055791;28;20416;-85
2022/07/06 08:28:24;;;;;;;0.00;0.00;;;17.90;99.90;;;;;;5055424;28;20037;-84
2022/07/06 08:30:51;;;;;;;0.00;0.00;;;18.10;99.90;;;;;;5038139;28;20045;-85
2022/07/06 08:33:17;;;;;;;0.00;0.00;;;18.10;99.90;;;;;;5071317;28;20107;-84
2022/07/06 08:35:44;;;;;;;0.00;0.00;;;17.90;99.90;;;;;;5055079;28;20402;-85
2022/07/06 08:38:11;;;;;;;0.00;0.00;;;17.90;99.90;;;;;;5055197;28;20509;-85
2022/07/06 08:40:40;;;;;;;0.20;0.10;;;18.00;99.90;;;;;;5054991;28;20041;-84
2022/07/06 08:43:07;;;;;;;0.00;0.00;;;18.20;99.90;;;;;;5071926;28;20045;-85
2022/07/06 08:45:35;;;;;;;0.00;0.00;;;18.10;99.90;;;;;;5055161;28;20398;-84
2022/07/06 08:48:06;;;;;;;0.00;0.00;;;17.90;99.90;;;;;;5071611;28;20048;-84
2022/07/06 08:50:34;;;;;;;0.00;0.00;;;17.80;99.90;;;;;;5038730;28;20123;-83
2022/07/06 08:53:00;;;;;;;0.00;0.00;;;17.50;99.90;;;;;;5054716;28;20040;-84
2022/07/06 08:55:31;;;;;;;0.13;0.08;;;17.40;99.90;;;;;;5055422;28;20037;-86
2022/07/06 08:57:58;;;;;;;0.10;0.00;;;17.40;99.90;;;;;;5071039;28;20532;-85
2022/07/06 09:00:25;;;;;;;0.00;0.00;;;17.40;99.90;;;;;;5038556;28;20037;-86
2022/07/06 09:02:54;;;;;;;0.00;0.00;;;17.50;99.90;;;;;;5070729;28;20084;-86
2022/07/06 09:05:23;;;;;;;0.08;0.08;;;17.70;99.90;;;;;;5070985;28;20516;-84
2022/07/06 09:07:50;;;;;;;0.35;0.20;;;17.70;99.90;;;;;;5054579;28;20048;-85
2022/07/06 09:10:18;;;;;;;0.00;0.00;;;17.90;99.90;;;;;;5070966;28;20401;-85
2022/07/06 09:12:45;;;;;;;0.00;0.00;;;17.90;99.90;;;;;;5054254;28;20493;-85
2022/07/06 09:15:12;;;;;;;0.00;0.00;;;18.00;99.90;;;;;;5038435;28;20040;-84
2022/07/06 09:17:40;;;;;;;0.00;0.00;;;18.20;99.90;;;;;;5054730;28;20037;-85
2022/07/06 09:20:12;;;;;;;0.22;0.10;;;18.20;99.90;;;;;;5070250;28;20096;-84
2022/07/06 09:22:39;;;;;;;0.00;0.00;;;18.20;99.90;;;;;;5070829;28;20560;-85
2022/07/06 09:25:09;;;;;;;0.20;0.05;;;18.30;99.90;;;;;;5070986;28;20048;-85
2022/07/06 09:27:40;;;;;;;0.00;0.00;;;18.40;99.90;;;;;;5070936;28;20449;-85
2022/07/06 09:30:09;;;;;;;0.10;0.10;;;18.40;99.90;;;;;;5054536;28;20045;-84
2022/07/06 09:32:45;;;;;;;0.40;0.17;;;18.50;99.90;;;;;;5070523;28;20516;-86
2022/07/06 09:35:28;;;;;;;0.00;0.00;;;18.80;99.90;;;;;;5070530;28;20041;-86
2022/07/06 09:38:13;;;;;;;0.00;0.00;;;18.40;99.90;;;;;;5070554;28;20033;-86
2022/07/06 09:40:42;;;;;;;0.10;0.00;;;18.40;99.90;;;;;;5070457;28;20103;-86
2022/07/06 09:43:19;;;;;;;0.10;0.10;;;18.50;99.90;;;;;;5070443;28;20049;-86
2022/07/06 09:45:54;;;;;;;0.00;0.00;;;18.60;99.90;;;;;;5053486;28;20561;-85
2022/07/06 09:48:23;;;;;;;;;;;18.80;99.90;;;;;;5070895;28;20044;-86
2022/07/06 09:50:56;;;;;;;0.00;0.00;;;18.70;99.90;;;;;;5088209;28;19921;-86
2022/07/06 09:53:25;;;;;;;0.00;0.00;;;18.70;99.90;;;;;;5087094;28;20036;-85
2022/07/06 09:56:01;;;;;;;0.00;0.00;;;18.90;99.90;;;;;;5069860;28;20135;-89
2022/07/06 09:58:28;;;;;;;0.10;0.10;;;19.00;99.90;;;;;;5055169;28;20047;-88
2022/07/06 10:00:55;;;;;;;0.52;0.05;;;19.10;99.90;;;;;;5037752;28;20037;-87
2022/07/06 10:03:22;;;;;;;0.00;0.00;;;19.20;99.90;;;;;;5037859;28;20041;-86
2022/07/06 10:05:49;;;;;;;0.03;0.03;;;19.20;99.90;;;;;;5069661;28;20040;-87
2022/07/06 10:08:17;;;;;;;0.00;0.00;;;19.40;99.90;;;;;;5071353;28;20166;-88
2022/07/06 10:10:44;;;;;;;0.00;0.00;;;19.60;99.90;;;;;;5087346;28;20041;-88
2022/07/06 10:13:13;;;;;;;2.25;0.30;;;19.60;99.90;;;;;;5087130;28;20115;-87
2022/07/06 10:15:40;;;;;;;0.05;0.03;;;19.50;99.90;;;;;;5070354;28;20043;-86
2022/07/06 10:18:10;;;;;;;0.00;0.00;;;19.50;99.90;;;;;;5103779;28;20029;-87
2022/07/06 10:20:38;;;;;;;0.47;0.20;;;19.50;99.90;;;;;;5070765;28;20099;-87
2022/07/06 10:23:07;;;;;;;0.00;0.00;;;19.80;99.90;;;;;;5070446;28;20041;-87
2022/07/06 10:25:34;;;;;;;0.00;0.00;;;20.10;99.90;;;;;;5087359;28;20048;-88
2022/07/06 10:28:02;;;;;;;0.00;0.00;;;20.30;99.90;;;;;;5070085;28;20530;-87
2022/07/06 10:30:29;;;;;;;0.00;0.00;;;20.30;99.90;;;;;;5086529;28;20068;-86
2022/07/06 10:32:58;;;;;;;0.08;0.03;;;20.20;99.90;;;;;;5085234;28;20103;-84
2022/07/06 10:35:25;;;;;;;0.10;0.10;;;20.00;99.90;;;;;;5073114;28;20045;-84
2022/07/06 10:38:09;;;;;;;0.00;0.00;;;19.90;99.90;;;;;;5085440;28;20047;-86
2022/07/06 10:43:38;;;;;;;0.13;0.10;;;19.70;99.90;;;;;;5086313;28;20087;-86
2022/07/06 10:46:16;;;;;;;0.00;0.00;;;19.60;99.90;;;;;;5077123;28;20047;-86
2022/07/06 10:48:44;;;;;;;0.00;0.00;;;19.70;99.90;;;;;;5080972;28;20037;-87
2022/07/06 10:51:12;;;;;;;0.00;0.00;;;19.60;99.90;;;;;;5035884;28;20115;-84
2022/07/06 10:53:40;;;;;;;0.13;0.03;;;19.80;99.90;;;;;;5053364;28;20076;-85
2022/07/06 10:56:09;;;;;;;0.00;0.00;;;20.10;99.90;;;;;;5068941;28;20127;-85
2022/07/06 10:58:37;;;;;;;0.03;0.00;;;20.40;99.90;;;;;;5056409;28;20040;-86
2022/07/06 11:01:05;;;;;;;0.00;0.00;;;20.40;99.90;;;;;;5068311;28;20540;-84
2022/07/06 11:03:48;;;;;;;0.25;0.20;;;20.40;99.90;;;;;;5053168;28;20036;-86
2022/07/06 11:06:16;;;;;;;0.17;0.05;;;20.40;99.90;;;;;;5068791;28;20040;-86
2022/07/06 11:08:46;;;;;;;0.38;0.10;;;20.40;99.90;;;;;;5069315;28;20041;-87
2022/07/06 11:11:19;;;;;;;0.00;0.00;;;20.50;99.90;;;;;;5062102;28;20045;-83
2022/07/06 11:13:58;;;;;;;0.00;0.00;;;20.70;99.90;;;;;;5063162;28;20035;-84
2022/07/06 11:16:27;;;;;;;0.10;0.10;;;20.70;99.90;;;;;;5068253;28;20122;-84
2022/07/06 11:19:01;;;;;;;0.00;0.00;;;20.60;99.90;;;;;;5072645;28;20040;-84
2022/07/06 11:21:38;;;;;;;0.00;0.00;;;20.40;99.90;;;;;;5065788;28;20087;-84
2022/07/06 11:24:08;;;;;;;0.00;0.00;;;20.20;99.90;;;;;;5088662;28;20044;-83
2022/07/06 11:26:36;;;;;;;0.00;0.00;;;20.10;99.90;;;;;;5094491;28;20064;-82
2022/07/06 11:29:05;;;;;;;0.00;0.00;;;20.10;99.90;;;;;;5054278;28;20039;-83
2022/07/06 11:31:37;;;;;;;0.10;0.10;;;20.20;99.90;;;;;;5077234;28;20060;-86
2022/07/06 11:34:08;;;;;;;0.03;0.03;;;20.10;99.90;;;;;;5092083;28;20605;-85
2022/07/06 11:36:35;;;;;;;0.00;0.00;;;20.10;99.90;;;;;;5081506;28;20032;-85
2022/07/06 11:39:02;;;;;;;0.10;0.00;;;20.30;99.90;;;;;;5054785;28;20117;-85
2022/07/06 11:41:29;;;;;;;0.00;0.00;;;20.30;99.90;;;;;;5055819;28;20119;-85
2022/07/06 11:43:56;;;;;;;1.20;0.00;;;20.20;99.90;;;;;;5059321;28;20178;-84
2022/07/06 11:46:31;;;;;;;0.00;0.00;;;20.10;99.90;;;;;;5058818;28;20037;-86
2022/07/06 11:49:00;;;;;;;0.10;0.10;;;20.20;99.90;;;;;;5075303;28;20139;-86
2022/07/06 11:51:29;;;;;;;0.00;0.00;;;20.50;99.90;;;;;;5059151;28;20387;-85
2022/07/06 11:54:01;;;;;;;0.17;0.10;;;20.70;99.90;;;;;;5075724;28;20032;-84
2022/07/06 11:56:29;;;;;;;0.00;0.00;;;20.80;99.90;;;;;;5059704;28;20032;-85
2022/07/06 11:58:58;;;;;;;0.10;0.10;;;20.60;99.20;;;;;;5071524;28;20063;-86
2022/07/06 12:01:27;;;;;;;0.00;0.00;;;20.60;99.20;;;;;;5074828;28;20072;-86
2022/07/06 12:03:58;;;;;;;0.10;0.10;;;20.40;98.20;;;;;;5078768;28;20051;-84
2022/07/06 12:06:25;;;;;;;0.10;0.10;;;20.20;99.00;;;;;;5095264;28;20040;-85
2022/07/06 12:08:55;;;;;;;0.10;0.10;;;20.20;99.90;;;;;;5062664;28;20506;-84
2022/07/06 12:11:30;;;;;;;0.10;0.10;;;20.20;99.80;;;;;;5094198;28;20125;-86
2022/07/06 12:14:00;;;;;;;0.00;0.00;;;20.20;99.90;;;;;;5079697;28;20094;-86
2022/07/06 12:16:34;;;;;;;0.00;0.00;;;20.00;99.90;;;;;;5075763;28;20777;-86
2022/07/06 12:19:03;;;;;;;0.52;0.20;;;20.00;99.90;;;;;;5075684;28;20190;-83
2022/07/06 12:21:31;;;;;;;0.10;0.10;;;20.00;99.90;;;;;;5059113;28;20051;-85
2022/07/06 12:23:58;;;;;;;0.00;0.00;;;20.30;99.90;;;;;;5042838;28;20135;-85
2022/07/06 12:26:29;;;;;;;0.22;0.13;;;20.60;99.90;;;;;;5058583;28;20170;-87
2022/07/06 12:29:00;;;;;;;0.10;0.10;;;20.70;99.90;;;;;;5076429;28;20413;-86
2022/07/06 12:31:34;;;;;;;0.63;0.52;;;20.60;99.90;;;;;;5083926;28;20048;-86
2022/07/06 12:34:02;;;;;;;0.00;0.00;;;20.40;99.90;;;;;;5083420;28;20036;-84
2022/07/06 12:36:29;;;;;;;0.30;0.20;;;20.20;99.00;;;;;;5073083;28;20055;-86
2022/07/06 12:38:56;;;;;;;0.10;0.10;;;20.30;99.90;;;;;;5059615;28;20036;-86
2022/07/06 12:41:33;;;;;;;0.10;0.10;;;20.00;99.90;;;;;;5077827;28;20584;-84
2022/07/06 12:44:01;;;;;;;0.10;0.10;;;20.00;99.90;;;;;;5077716;28;20052;-86
2022/07/06 12:46:36;;;;;;;0.00;0.00;;;20.10;99.90;;;;;;5074367;28;20149;-85
2022/07/06 12:49:11;;;;;;;0.10;0.10;;;20.40;99.90;;;;;;5087339;28;20040;-82
2022/07/06 12:51:58;;;;;;;0.00;0.00;;;20.70;99.70;;;;;;5073832;28;20051;-85
2022/07/06 12:54:31;;;;;;;0.00;0.00;;;20.80;99.60;;;;;;5076373;28;20386;-84
2022/07/06 12:57:17;;;;;;;0.32;0.10;;;20.70;98.70;;;;;;5094526;28;20051;-83
2022/07/06 12:59:53;;;;;;;0.00;0.00;;;20.70;98.80;;;;;;5090274;28;20450;-82
2022/07/06 13:02:25;;;;;;;0.03;0.03;;;20.70;98.90;;;;;;5106734;28;20040;-83